createdAt,value
2018-04-19T00:00:14.362Z,12.96
2018-04-19T00:02:41.832Z,12.98
2018-04-19T00:05:09.310Z,12.91
2018-04-19T00:07:36.766Z,12.82
2018-04-19T00:10:22.995Z,12.86
2018-04-19T00:12:50.450Z,12.77
2018-04-19T00:15:17.931Z,12.78
2018-04-19T00:17:45.402Z,12.82
2018-04-19T00:20:12.878Z,12.54
2018-04-19T00:22:40.370Z,12.32
2018-04-19T00:25:07.847Z,12.19
2018-04-19T00:27:35.314Z,12.11
2018-04-19T00:30:02.825Z,12.18
2018-04-19T00:32:30.283Z,12.29
2018-04-19T00:34:57.763Z,12.38
2018-04-19T00:37:25.236Z,12.43
2018-04-19T00:39:52.719Z,12.34
2018-04-19T00:42:20.226Z,11.97
2018-04-19T00:44:47.721Z,12.07
2018-04-19T00:47:15.188Z,12.17
2018-04-19T00:49:42.682Z,12.24
2018-04-19T00:52:10.146Z,12.27
2018-04-19T00:54:37.630Z,11.89
2018-04-19T00:57:05.086Z,11.64
2018-04-19T00:59:32.569Z,11.66
2018-04-19T01:02:00.033Z,11.80
2018-04-19T01:04:27.521Z,11.86
2018-04-19T01:06:54.986Z,11.93
2018-04-19T01:09:22.474Z,11.91
2018-04-19T01:11:49.954Z,11.86
2018-04-19T01:14:17.439Z,11.88
2018-04-19T01:16:44.907Z,11.89
2018-04-19T01:19:12.395Z,11.89
2018-04-19T01:21:39.857Z,11.90
2018-04-19T01:24:07.337Z,11.85
2018-04-19T01:26:34.803Z,11.87
2018-04-19T01:29:02.317Z,11.86
2018-04-19T01:31:29.779Z,11.83
2018-04-19T01:33:57.279Z,11.28
2018-04-19T01:36:25.541Z,11.01
2018-04-19T01:38:53.014Z,10.87
2018-04-19T01:41:20.501Z,11.00
2018-04-19T01:43:47.965Z,11.19
2018-04-19T01:46:15.447Z,11.29
2018-04-19T01:48:42.910Z,11.42
2018-04-19T01:51:10.390Z,11.48
2018-04-19T01:53:45.561Z,11.54
2018-04-19T01:56:13.033Z,11.58
2018-04-19T01:58:40.494Z,11.58
2018-04-19T02:01:07.987Z,11.53
2018-04-19T02:03:35.459Z,11.35
2018-04-19T02:06:02.975Z,11.29
2018-04-19T02:08:30.441Z,11.39
2018-04-19T02:10:57.931Z,11.44
2018-04-19T02:13:25.394Z,11.48
2018-04-19T02:15:52.882Z,11.49
2018-04-19T02:18:20.342Z,11.46
2018-04-19T02:20:47.829Z,11.47
2018-04-19T02:23:15.302Z,11.49
2018-04-19T02:25:42.782Z,11.54
2018-04-19T02:28:10.914Z,11.63
2018-04-19T02:30:38.414Z,11.49
2018-04-19T02:33:05.887Z,11.46
2018-04-19T02:35:33.366Z,11.46
2018-04-19T02:38:00.845Z,11.49
2018-04-19T02:40:28.330Z,11.49
2018-04-19T02:42:55.798Z,11.46
2018-04-19T02:45:23.288Z,11.42
2018-04-19T02:47:50.749Z,11.37
2018-04-19T02:50:18.249Z,11.37
2018-04-19T02:52:45.710Z,11.36
2018-04-19T02:55:13.195Z,11.22
2018-04-19T02:57:40.667Z,11.20
2018-04-19T03:00:08.153Z,11.08
2018-04-19T03:02:35.634Z,11.02
2018-04-19T03:05:03.145Z,11.06
2018-04-19T03:07:30.618Z,11.07
2018-04-19T03:09:58.104Z,11.06
2018-04-19T03:12:25.593Z,11.04
2018-04-19T03:14:53.080Z,10.98
2018-04-19T03:17:20.541Z,10.94
2018-04-19T03:19:48.035Z,10.90
2018-04-19T03:22:15.493Z,10.85
2018-04-19T03:24:42.997Z,10.87
2018-04-19T03:27:10.469Z,10.83
2018-04-19T03:29:37.954Z,10.84
2018-04-19T03:32:05.438Z,10.75
2018-04-19T03:34:32.902Z,10.77
2018-04-19T03:37:00.497Z,10.76
2018-04-19T03:39:27.957Z,10.75
2018-04-19T03:41:55.449Z,10.75
2018-04-19T03:44:22.969Z,10.75
2018-04-19T03:46:50.458Z,10.72
2018-04-19T03:49:17.925Z,10.68
2018-04-19T03:51:45.426Z,10.65
2018-04-19T03:54:12.893Z,10.66
2018-04-19T03:56:40.385Z,10.60
2018-04-19T03:59:07.857Z,10.59
2018-04-19T04:01:35.358Z,10.62
2018-04-19T04:04:02.826Z,10.58
2018-04-19T04:06:30.318Z,10.58
2018-04-19T04:08:57.823Z,10.56
2018-04-19T04:11:25.310Z,10.55
2018-04-19T04:13:52.784Z,10.56
2018-04-19T04:16:32.181Z,10.55
2018-04-19T04:19:11.226Z,10.55
2018-04-19T04:21:50.395Z,10.58
2018-04-19T04:24:17.853Z,10.62
2018-04-19T04:26:45.344Z,10.64
2018-04-19T04:29:12.810Z,10.66
2018-04-19T04:31:40.294Z,10.64
2018-04-19T04:34:07.782Z,10.65
2018-04-19T04:36:36.114Z,10.68
2018-04-19T04:39:03.570Z,10.67
2018-04-19T04:41:31.053Z,10.52
2018-04-19T04:43:58.515Z,10.42
2018-04-19T04:46:26.033Z,10.48
2018-04-19T04:48:53.494Z,10.56
2018-04-19T04:51:20.974Z,10.73
2018-04-19T04:53:48.436Z,10.81
2018-04-19T04:56:15.921Z,10.88
2018-04-19T04:58:43.958Z,10.96
2018-04-19T05:01:11.440Z,11.04
2018-04-19T05:03:39.766Z,11.14
2018-04-19T05:06:09.075Z,11.29
2018-04-19T05:13:44.257Z,11.85
2018-04-19T05:34:25.170Z,13.39
2018-04-19T05:42:16.166Z,13.83
2018-04-19T05:44:52.778Z,13.97
2018-04-19T05:55:04.056Z,14.51
2018-04-19T05:57:33.807Z,14.63
2018-04-19T06:00:02.225Z,14.74
2018-04-19T06:02:33.083Z,14.84
2018-04-19T06:05:01.008Z,14.94
2018-04-19T06:07:28.589Z,15.03
2018-04-19T06:10:01.019Z,15.10
2018-04-19T06:12:30.334Z,15.20
2018-04-19T06:14:57.894Z,15.26
2018-04-19T06:17:25.378Z,15.35
2018-04-19T06:19:52.847Z,15.45
2018-04-19T06:22:20.334Z,15.53
2018-04-19T06:24:47.808Z,15.67
2018-04-19T06:27:15.301Z,15.79
2018-04-19T06:29:42.802Z,15.84
2018-04-19T06:32:10.274Z,15.95
2018-04-19T06:34:37.738Z,15.98
2018-04-19T06:37:05.218Z,16.25
2018-04-19T06:39:32.687Z,16.51
2018-04-19T06:42:00.169Z,16.81
2018-04-19T06:44:27.633Z,17.06
2018-04-19T06:46:55.113Z,17.36
2018-04-19T06:49:22.585Z,17.63
2018-04-19T06:51:50.074Z,17.88
2018-04-19T06:54:17.533Z,18.13
2018-04-19T06:56:45.112Z,18.35
2018-04-19T06:59:12.584Z,18.49
2018-04-19T07:01:40.065Z,18.71
2018-04-19T07:04:07.525Z,18.89
2018-04-19T07:06:35.936Z,19.07
2018-04-19T07:09:03.407Z,19.19
2018-04-19T07:11:30.889Z,19.33
2018-04-19T07:13:58.359Z,19.46
2018-04-19T07:16:27.723Z,19.55
2018-04-19T07:18:55.197Z,19.64
2018-04-19T07:21:22.665Z,19.73
2018-04-19T07:23:50.143Z,19.77
2018-04-19T07:26:17.603Z,19.72
2018-04-19T07:28:45.082Z,19.93
2018-04-19T07:31:12.640Z,20.12
2018-04-19T07:33:40.214Z,20.27
2018-04-19T07:36:07.695Z,20.44
2018-04-19T07:38:35.216Z,20.58
2018-04-19T07:41:02.782Z,20.75
2018-04-19T07:43:30.298Z,20.90
2018-04-19T07:45:57.770Z,21.08
2018-04-19T07:48:25.275Z,21.26
2018-04-19T07:50:52.771Z,21.39
2018-04-19T07:53:20.289Z,21.50
2018-04-19T07:55:47.803Z,21.57
2018-04-19T07:58:15.335Z,21.66
2018-04-19T08:00:42.822Z,21.73
2018-04-19T08:03:10.389Z,21.72
2018-04-19T08:05:37.901Z,21.83
2018-04-19T08:08:05.401Z,21.80
2018-04-19T08:10:32.887Z,21.87
2018-04-19T08:13:01.012Z,21.94
2018-04-19T08:15:28.508Z,21.96
2018-04-19T08:17:56.044Z,21.99
2018-04-19T08:20:23.626Z,22.07
2018-04-19T08:22:51.113Z,21.93
2018-04-19T08:25:18.601Z,21.97
2018-04-19T08:27:46.106Z,21.89
2018-04-19T08:30:13.598Z,21.78
2018-04-19T08:32:41.180Z,22.00
2018-04-19T08:35:08.739Z,22.08
2018-04-19T08:37:36.225Z,22.06
2018-04-19T08:40:03.711Z,21.84
2018-04-19T08:42:31.234Z,21.86
2018-04-19T08:44:58.791Z,22.13
2018-04-19T08:47:26.382Z,22.25
2018-04-19T08:49:53.888Z,22.38
2018-04-19T08:52:21.414Z,22.43
2018-04-19T08:54:48.903Z,22.51
2018-04-19T08:57:16.440Z,22.61
2018-04-19T08:59:43.946Z,22.60
2018-04-19T09:02:11.508Z,22.70
2018-04-19T09:04:39.007Z,22.79
2018-04-19T09:07:06.606Z,22.86
2018-04-19T09:09:34.124Z,22.80
2018-04-19T09:12:01.630Z,22.96
2018-04-19T09:14:29.180Z,22.91
2018-04-19T09:17:01.938Z,23.05
2018-04-19T09:19:29.506Z,23.15
2018-04-19T09:21:57.058Z,23.19
2018-04-19T09:24:24.568Z,23.25
2018-04-19T09:26:52.120Z,23.23
2018-04-19T09:29:19.590Z,23.25
2018-04-19T09:31:47.076Z,23.29
2018-04-19T09:34:14.623Z,23.29
2018-04-19T09:36:42.181Z,23.33
2018-04-19T09:39:09.668Z,23.31
2018-04-19T09:41:37.129Z,23.37
2018-04-19T09:44:04.618Z,23.46
2018-04-19T09:46:32.083Z,23.45
2018-04-19T09:48:59.584Z,23.48
2018-04-19T09:51:27.066Z,23.41
2018-04-19T09:53:54.592Z,23.47
2018-04-19T09:56:22.070Z,23.59
2018-04-19T09:59:01.233Z,23.69
2018-04-19T10:01:28.723Z,23.73
2018-04-19T10:03:56.245Z,23.71
2018-04-19T10:06:23.711Z,23.79
2018-04-19T10:08:51.186Z,23.86
2018-04-19T10:11:18.659Z,23.93
2018-04-19T10:13:46.159Z,23.97
2018-04-19T10:16:13.618Z,23.97
2018-04-19T10:18:41.101Z,24.00
2018-04-19T10:21:08.562Z,24.04
2018-04-19T10:23:36.043Z,24.08
2018-04-19T10:26:03.517Z,24.09
2018-04-19T10:28:31.020Z,24.19
2018-04-19T10:30:58.483Z,24.30
2018-04-19T10:33:25.980Z,24.33
2018-04-19T10:35:53.442Z,24.39
2018-04-19T10:38:20.933Z,24.43
2018-04-19T10:40:48.399Z,24.48
2018-04-19T10:43:15.899Z,24.57
2018-04-19T10:45:43.363Z,24.64
2018-04-19T10:48:10.895Z,24.76
2018-04-19T10:50:38.370Z,24.84
2018-04-19T10:53:05.854Z,24.87
2018-04-19T10:55:33.332Z,24.90
2018-04-19T10:58:00.822Z,25.02
2018-04-19T11:00:28.290Z,25.05
2018-04-19T11:02:55.770Z,25.09
2018-04-19T11:05:23.268Z,25.15
2018-04-19T11:07:50.761Z,25.21
2018-04-19T11:10:18.289Z,25.27
2018-04-19T11:12:45.728Z,25.28
2018-04-19T11:18:23.187Z,25.38
2018-04-19T11:20:50.664Z,25.42
2018-04-19T11:23:18.166Z,25.48
2018-04-19T11:25:45.633Z,25.54
2018-04-19T11:28:13.126Z,25.61
2018-04-19T11:30:46.514Z,25.74
2018-04-19T11:33:14.843Z,25.85
2018-04-19T11:35:42.698Z,25.97
2018-04-19T11:38:12.903Z,26.03
2018-04-19T11:40:40.751Z,26.19
2018-04-19T11:43:08.310Z,26.30
2018-04-19T11:45:35.864Z,26.37
2018-04-19T11:48:12.375Z,26.37
2018-04-19T11:50:42.444Z,26.32
2018-04-19T11:53:12.848Z,26.32
2018-04-19T11:55:40.354Z,26.28
2018-04-19T11:58:08.617Z,26.33
2018-04-19T12:00:39.582Z,26.33
2018-04-19T12:03:07.605Z,26.35
2018-04-19T12:05:36.055Z,26.49
2018-04-19T12:08:06.997Z,26.58
2018-04-19T12:10:34.567Z,26.67
2018-04-19T12:13:02.108Z,26.80
2018-04-19T12:15:29.680Z,26.87
2018-04-19T12:17:57.514Z,27.01
2018-04-19T12:20:25.101Z,27.11
2018-04-19T12:22:52.570Z,27.29
2018-04-19T12:25:20.054Z,27.52
2018-04-19T12:27:47.519Z,27.63
2018-04-19T12:30:15.020Z,27.70
2018-04-19T12:32:42.486Z,27.70
2018-04-19T12:35:09.973Z,27.64
2018-04-19T12:37:37.496Z,27.60
2018-04-19T12:40:04.943Z,27.68
2018-04-19T12:42:32.410Z,27.79
2018-04-19T12:44:59.905Z,27.80
2018-04-19T12:47:27.370Z,27.88
2018-04-19T12:49:54.856Z,28.03
2018-04-19T12:52:22.343Z,28.13
2018-04-19T12:54:49.829Z,28.39
2018-04-19T12:57:17.290Z,28.43
2018-04-19T12:59:47.787Z,28.67
2018-04-19T13:02:15.242Z,28.74
2018-04-19T13:04:42.744Z,28.78
2018-04-19T13:07:10.222Z,29.20
2018-04-19T13:09:37.705Z,29.22
2018-04-19T13:12:05.170Z,29.37
2018-04-19T13:14:32.655Z,29.12
2018-04-19T13:17:00.217Z,29.78
2018-04-19T13:19:27.704Z,31.08
2018-04-19T13:21:55.181Z,32.49
2018-04-19T13:24:22.673Z,33.54
2018-04-19T13:26:50.234Z,34.49
2018-04-19T13:29:17.720Z,33.08
2018-04-19T13:31:45.195Z,34.16
2018-04-19T13:34:12.681Z,34.54
2018-04-19T13:36:40.141Z,34.48
2018-04-19T13:39:07.622Z,34.04
2018-04-19T13:41:35.096Z,33.46
2018-04-19T13:44:02.571Z,34.16
2018-04-19T13:46:30.053Z,33.50
2018-04-19T13:48:57.549Z,34.82
2018-04-19T13:51:25.047Z,33.73
2018-04-19T13:53:52.510Z,33.44
2018-04-19T13:56:20.002Z,33.90
2018-04-19T13:58:54.720Z,34.75
2018-04-19T14:01:25.164Z,35.74
2018-04-19T14:04:02.915Z,34.70
2018-04-19T14:06:34.489Z,35.64
2018-04-19T14:09:02.359Z,35.76
2018-04-19T15:33:27.967Z,40.76
2018-04-19T15:35:55.456Z,40.49
2018-04-19T15:38:22.958Z,41.14
2018-04-19T15:40:50.443Z,41.44
2018-04-19T15:43:17.913Z,41.12
2018-04-19T15:45:45.409Z,41.07
2018-04-19T15:48:12.869Z,41.23
2018-04-19T15:50:40.362Z,41.32
2018-04-19T15:53:07.818Z,41.09
2018-04-19T15:55:35.296Z,40.97
2018-04-19T15:58:02.766Z,40.79
2018-04-19T16:00:30.254Z,40.99
2018-04-19T16:02:57.718Z,40.44
2018-04-19T16:05:25.205Z,40.74
2018-04-19T16:07:52.681Z,40.79
2018-04-19T16:10:20.174Z,40.33
2018-04-19T16:12:48.368Z,40.27
2018-04-19T16:15:15.869Z,40.64
2018-04-19T16:17:43.334Z,40.46
2018-04-19T16:20:11.721Z,39.92
2018-04-19T16:22:39.202Z,39.37
2018-04-19T16:25:06.749Z,39.11
2018-04-19T16:27:34.233Z,38.11
2018-04-19T16:30:01.709Z,38.01
2018-04-19T16:32:29.201Z,38.83
2018-04-19T16:34:56.673Z,39.09
2018-04-19T16:37:24.924Z,39.16
2018-04-19T16:39:52.510Z,38.95
2018-04-19T16:42:24.068Z,38.91
2018-04-19T16:44:51.648Z,37.54
2018-04-19T16:47:19.188Z,35.32
2018-04-19T16:49:50.012Z,33.37
2018-04-19T16:52:19.116Z,31.25
2018-04-19T16:54:46.749Z,30.18
2018-04-19T16:57:18.460Z,29.27
2018-04-19T16:59:45.972Z,29.07
2018-04-19T17:02:14.822Z,28.74
2018-04-19T17:04:43.481Z,27.92
2018-04-19T17:07:11.929Z,27.61
2018-04-19T17:09:39.871Z,27.59
2018-04-19T17:12:15.742Z,27.07
2018-04-19T17:14:44.968Z,26.19
2018-04-19T17:17:19.966Z,26.40
2018-04-19T17:19:49.171Z,26.39
2018-04-19T17:22:16.886Z,26.19
2018-04-19T17:24:44.462Z,26.34
2018-04-19T17:27:12.595Z,26.01
2018-04-19T17:29:40.214Z,25.80
2018-04-19T17:32:11.927Z,25.96
2018-04-19T17:34:39.531Z,25.75
2018-04-19T17:56:58.472Z,25.08
2018-04-19T17:59:26.036Z,24.94
2018-04-19T18:02:02.587Z,24.79
2018-04-19T18:04:47.354Z,24.66
2018-04-19T18:07:15.660Z,24.52
2018-04-19T18:09:43.141Z,24.46
2018-04-19T18:12:10.649Z,24.30
2018-04-19T18:14:38.206Z,24.14
2018-04-19T18:17:06.097Z,24.00
2018-04-19T18:19:33.725Z,23.87
2018-04-19T18:22:01.298Z,23.70
2018-04-19T18:24:28.843Z,23.54
2018-04-19T18:26:56.475Z,23.35
2018-04-19T18:29:23.997Z,23.19
2018-04-19T18:31:51.606Z,23.00
2018-04-19T18:34:19.314Z,22.83
2018-04-19T18:36:46.841Z,22.71
2018-04-19T18:39:14.490Z,22.61
2018-04-19T18:41:42.137Z,22.52
2018-04-19T18:44:09.742Z,22.43
2018-04-19T18:46:37.229Z,22.32
2018-04-19T18:49:04.822Z,22.20
2018-04-19T18:51:32.354Z,22.12
2018-04-19T18:53:59.876Z,22.07
2018-04-19T18:56:27.454Z,21.98
2018-04-19T18:58:54.953Z,21.90
2018-04-19T19:01:22.790Z,21.72
2018-04-19T19:03:50.325Z,21.52
2018-04-19T19:06:18.145Z,21.28
2018-04-19T19:08:45.727Z,21.13
2018-04-19T19:11:13.255Z,20.90
2018-04-19T19:13:40.767Z,20.76
2018-04-19T19:16:09.194Z,20.58
2018-04-19T19:18:48.387Z,20.44
2018-04-19T19:21:15.894Z,20.38
2018-04-19T19:23:43.371Z,20.37
2018-04-19T19:26:10.908Z,20.34
2018-04-19T19:28:38.564Z,20.26
2018-04-19T19:31:06.070Z,20.19
2018-04-19T19:33:33.634Z,20.17
2018-04-19T19:36:01.955Z,20.21
2018-04-19T19:38:29.565Z,20.17
2018-04-19T19:40:57.097Z,20.07
2018-04-19T19:43:24.663Z,19.87
2018-04-19T19:45:52.274Z,19.65
2018-04-19T19:48:19.955Z,19.47
2018-04-19T20:16:39.422Z,17.60
2018-04-19T20:19:06.918Z,17.83
2018-04-19T20:21:34.389Z,17.83
2018-04-19T20:24:01.956Z,17.87
2018-04-19T20:26:29.443Z,17.87
2018-04-19T20:28:56.935Z,17.90
2018-04-19T20:31:24.399Z,17.85
2018-04-19T20:33:51.884Z,17.82
2018-04-19T20:36:19.357Z,17.90
2018-04-19T20:38:46.847Z,17.90
2018-04-19T20:41:14.310Z,18.04
2018-04-19T20:43:41.791Z,17.97
2018-04-19T20:46:09.257Z,17.96
2018-04-19T20:48:36.761Z,17.88
2018-04-19T20:51:04.241Z,17.76
2018-04-19T20:53:31.737Z,17.77
2018-04-19T20:55:59.197Z,17.66
2018-04-19T20:58:26.674Z,17.59
2018-04-19T21:00:54.137Z,17.52
2018-04-19T21:03:21.622Z,17.33
2018-04-19T21:05:49.098Z,17.14
2018-04-19T21:08:16.593Z,17.08
2018-04-19T21:10:44.045Z,16.97
2018-04-19T21:13:11.538Z,16.88
2018-04-19T21:15:39.002Z,16.84
2018-04-19T21:18:06.479Z,16.76
2018-04-19T21:20:33.983Z,16.72
2018-04-19T21:23:01.451Z,16.65
2018-04-19T21:25:28.934Z,16.63
2018-04-19T21:27:56.393Z,16.55
2018-04-19T21:30:23.891Z,16.45
2018-04-19T21:32:51.677Z,16.32
2018-04-19T21:35:19.163Z,16.07
2018-04-19T21:37:46.641Z,16.04
2018-04-19T21:40:14.118Z,15.98
2018-04-19T21:42:41.608Z,15.95
2018-04-19T21:45:09.073Z,15.98
2018-04-19T21:47:36.536Z,15.90
2018-04-19T21:50:04.027Z,15.81
2018-04-19T21:52:31.481Z,15.78
2018-04-19T21:54:58.961Z,15.72
2018-04-19T21:57:26.429Z,15.72
2018-04-19T21:59:53.906Z,15.67
2018-04-19T22:02:21.370Z,15.62
2018-04-19T22:04:48.855Z,15.55
2018-04-19T22:07:16.326Z,15.57
2018-04-19T22:09:44.903Z,15.48
2018-04-19T22:12:12.389Z,15.45
2018-04-19T22:14:39.876Z,15.40
2018-04-19T22:17:07.342Z,15.35
2018-04-19T22:19:34.841Z,15.19
2018-04-19T22:22:02.302Z,15.21
2018-04-19T22:24:29.786Z,15.04
2018-04-19T22:26:57.259Z,15.03
2018-04-19T22:29:24.744Z,15.00
2018-04-19T22:31:52.209Z,15.07
2018-04-19T22:34:19.694Z,15.05
2018-04-19T22:36:47.158Z,15.02
2018-04-19T22:39:14.649Z,14.99
2018-04-19T22:41:42.109Z,14.97
2018-04-19T22:44:09.585Z,14.96
2018-04-19T22:46:37.061Z,14.87
2018-04-19T22:49:04.545Z,14.75
2018-04-19T22:51:32.019Z,14.76
2018-04-19T22:53:59.512Z,14.74
2018-04-19T22:56:26.982Z,14.78
2018-04-19T22:58:54.462Z,14.86
2018-04-19T23:01:21.925Z,14.90
2018-04-19T23:03:49.401Z,14.88
2018-04-19T23:06:16.868Z,14.90
2018-04-19T23:08:44.353Z,14.87
2018-04-19T23:11:11.819Z,14.84
2018-04-19T23:13:39.294Z,14.83
2018-04-19T23:16:06.791Z,14.77
2018-04-19T23:18:34.254Z,14.80
2018-04-19T23:21:01.743Z,14.75
2018-04-19T23:23:29.201Z,14.75
2018-04-19T23:25:56.682Z,14.80
2018-04-19T23:28:24.146Z,14.83
2018-04-19T23:30:51.649Z,14.85
2018-04-19T23:33:19.110Z,14.84
2018-04-19T23:35:46.595Z,14.78
2018-04-19T23:38:14.058Z,14.71
2018-04-19T23:40:41.541Z,14.55
2018-04-19T23:43:09.010Z,14.45
2018-04-19T23:45:36.512Z,14.66
2018-04-19T23:48:03.965Z,14.75
2018-04-19T23:50:31.451Z,14.80
2018-04-19T23:52:58.938Z,14.85
2018-04-19T23:55:26.879Z,14.76
2018-04-19T23:57:54.353Z,14.59
